Time;durP1;ratioP1;P1;durP2;ratioP2;P2;SDS_P1;SDS_P2;PMS_P1;PMS_P2;Temp;Humidity;BMP_temperature;BMP_pressure;BME280_temperature;BME280_humidity;BME280_pressure;Samples;Min_cycle;Max_cycle;Signal;HPM_P1;HPM_P2
2022/08/22 00:02:32;;;;;;;4.70;2.40;;;23.50;61.10;;;;;;6100444;23;20389;-82
2022/08/22 00:05:25;;;;;;;6.20;2.90;;;23.60;62.00;;;;;;6105673;23;20440;-83
2022/08/22 00:08:02;;;;;;;3.60;2.57;;;23.50;63.00;;;;;;6104415;23;20428;-80
2022/08/22 00:10:37;;;;;;;7.03;2.90;;;23.60;63.10;;;;;;6078185;23;20876;-83
2022/08/22 00:13:15;;;;;;;3.90;2.60;;;23.50;63.30;;;;;;6078002;23;20464;-83
2022/08/22 00:15:49;;;;;;;4.13;2.77;;;23.50;63.60;;;;;;6070416;23;20444;-84
2022/08/22 00:18:31;;;;;;;4.07;2.40;;;23.40;64.00;;;;;;6070573;23;20399;-84
2022/08/22 00:21:17;;;;;;;2.83;2.53;;;23.40;64.50;;;;;;6071391;23;20557;-84
2022/08/22 00:23:59;;;;;;;4.20;2.97;;;23.50;64.40;;;;;;6073029;23;20389;-81
2022/08/22 00:27:06;;;;;;;4.43;2.50;;;23.40;64.90;;;;;;6073598;23;20464;-84
2022/08/22 00:30:01;;;;;;;3.40;2.60;;;23.50;64.80;;;;;;6074252;23;20515;-83
2022/08/22 00:32:35;;;;;;;4.90;3.30;;;23.40;64.90;;;;;;6073829;23;20735;-84
2022/08/22 00:35:24;;;;;;;6.30;3.40;;;23.40;65.20;;;;;;6075932;23;20432;-80
2022/08/22 00:38:32;;;;;;;3.70;2.60;;;23.30;65.60;;;;;;6106738;23;20421;-83
2022/08/22 00:41:18;;;;;;;3.50;2.20;;;23.30;65.70;;;;;;6077250;23;20440;-85
2022/08/22 00:44:10;;;;;;;2.70;2.43;;;23.20;65.60;;;;;;6078433;23;20390;-83
2022/08/22 00:47:13;;;;;;;3.17;2.87;;;23.20;66.40;;;;;;6080365;23;20429;-82
2022/08/22 00:49:55;;;;;;;3.20;1.87;;;23.10;66.40;;;;;;6100767;23;20407;-85
2022/08/22 00:52:43;;;;;;;2.40;1.90;;;23.10;66.40;;;;;;6101160;23;20388;-84
2022/08/22 00:55:30;;;;;;;4.00;2.60;;;23.20;66.40;;;;;;6099351;23;20448;-83
2022/08/22 00:58:22;;;;;;;3.90;2.47;;;23.10;66.30;;;;;;6099705;23;20409;-81
2022/08/22 01:01:01;;;;;;;2.83;2.50;;;23.00;66.70;;;;;;6099839;23;20428;-83
2022/08/22 01:03:49;;;;;;;6.77;2.97;;;23.00;67.00;;;;;;6099016;23;20468;-81
2022/08/22 01:06:53;;;;;;;2.17;1.87;;;23.00;67.40;;;;;;6100160;23;20518;-83
2022/08/22 01:09:49;;;;;;;3.17;2.40;;;23.00;67.70;;;;;;6100967;23;20423;-84
2022/08/22 01:12:46;;;;;;;7.00;2.60;;;23.00;67.70;;;;;;6100363;23;20389;-85
2022/08/22 01:15:19;;;;;;;3.60;2.17;;;23.00;67.90;;;;;;6099650;23;20432;-83
2022/08/22 01:17:52;;;;;;;3.47;1.90;;;23.00;68.00;;;;;;6076683;23;20396;-81
2022/08/22 01:21:02;;;;;;;3.70;2.50;;;23.00;68.50;;;;;;6101139;23;20448;-83
2022/08/22 01:23:48;;;;;;;3.60;2.50;;;23.00;68.50;;;;;;6079144;23;20916;-88
2022/08/22 01:26:49;;;;;;;4.63;2.63;;;23.00;68.80;;;;;;6080443;23;20432;-86
2022/08/22 01:30:00;;;;;;;5.10;2.40;;;23.00;68.20;;;;;;6080996;23;20493;-84
2022/08/22 01:32:30;;;;;;;3.40;1.87;;;22.90;68.80;;;;;;6081352;23;20479;-85
2022/08/22 01:38:24;;;;;;;4.70;2.87;;;22.90;68.80;;;;;;6145678;23;20451;-86
2022/08/22 01:41:22;;;;;;;4.27;2.57;;;22.90;68.80;;;;;;6126760;23;20459;-87
2022/08/22 01:44:15;;;;;;;4.97;2.70;;;22.80;69.00;;;;;;6151554;23;20487;-89
2022/08/22 01:46:58;;;;;;;4.00;2.73;;;22.70;69.50;;;;;;6125939;23;20490;-91
2022/08/22 01:49:34;;;;;;;5.40;3.40;;;22.80;69.60;;;;;;6126691;23;20400;-89
2022/08/22 01:52:16;;;;;;;5.60;3.27;;;22.70;70.00;;;;;;6126034;23;20421;-84
2022/08/22 01:54:49;;;;;;;4.00;3.00;;;22.70;70.20;;;;;;6121234;23;20407;-83
2022/08/22 01:57:18;;;;;;;3.70;2.40;;;22.70;70.70;;;;;;6113226;23;20429;-84
2022/08/22 01:59:51;;;;;;;4.20;3.80;;;22.70;70.90;;;;;;6112489;23;20415;-82
2022/08/22 02:02:57;;;;;;;3.87;2.70;;;22.70;71.10;;;;;;6111934;23;20923;-84
2022/08/22 02:05:36;;;;;;;3.73;2.40;;;22.70;71.20;;;;;;6112251;23;20462;-84
2022/08/22 02:08:18;;;;;;;6.03;2.83;;;22.70;71.60;;;;;;6114296;23;20392;-84
2022/08/22 02:11:03;;;;;;;4.23;3.03;;;22.70;71.90;;;;;;6114732;23;20415;-86
2022/08/22 02:13:47;;;;;;;3.10;2.57;;;22.90;71.20;;;;;;6118540;23;20436;-88
2022/08/22 02:16:19;;;;;;;5.30;2.60;;;22.90;71.30;;;;;;6145488;23;20451;-89
2022/08/22 02:19:17;;;;;;;3.60;2.90;;;22.80;71.50;;;;;;6125210;23;20404;-90
2022/08/22 02:21:54;;;;;;;3.30;3.00;;;22.60;72.40;;;;;;6126338;23;20450;-88
2022/08/22 02:24:32;;;;;;;3.40;2.80;;;22.50;73.20;;;;;;6151940;23;20474;-89
2022/08/22 02:27:31;;;;;;;4.40;3.00;;;22.50;74.20;;;;;;6126744;23;20482;-88
2022/08/22 02:30:13;;;;;;;4.67;3.70;;;22.40;74.10;;;;;;6121687;23;20418;-85
2022/08/22 02:32:40;;;;;;;3.90;3.00;;;22.40;75.10;;;;;;6116885;23;20396;-86
2022/08/22 02:35:35;;;;;;;3.70;2.87;;;22.40;75.50;;;;;;6115446;23;20438;-84
2022/08/22 02:38:02;;;;;;;2.97;2.70;;;22.50;75.50;;;;;;6114008;23;20423;-85
2022/08/22 02:40:40;;;;;;;4.20;2.97;;;22.40;75.70;;;;;;6114861;23;20450;-87
2022/08/22 02:43:24;;;;;;;4.37;2.60;;;22.40;76.20;;;;;;6139533;23;20459;-86
2022/08/22 02:46:37;;;;;;;4.17;3.07;;;22.50;77.80;;;;;;6138302;23;20432;-86
2022/08/22 02:49:29;;;;;;;4.17;3.53;;;22.50;77.30;;;;;;6115566;23;20435;-84
2022/08/22 02:52:08;;;;;;;3.53;2.90;;;22.50;76.80;;;;;;6144133;23;20455;-87
2022/08/22 02:54:42;;;;;;;5.37;3.20;;;22.30;77.50;;;;;;6116675;23;20407;-85
2022/08/22 02:57:15;;;;;;;4.83;2.77;;;22.20;78.00;;;;;;6139975;23;20411;-85
2022/08/22 03:00:25;;;;;;;4.17;3.33;;;22.20;78.50;;;;;;6122086;23;20399;-86
2022/08/22 03:02:58;;;;;;;5.10;2.57;;;22.10;79.00;;;;;;6147045;23;20474;-86
2022/08/22 03:05:37;;;;;;;5.50;3.30;;;22.10;79.50;;;;;;6148500;23;20488;-87
2022/08/22 03:08:11;;;;;;;2.70;2.50;;;22.10;80.00;;;;;;6124765;23;20442;-90
2022/08/22 03:10:45;;;;;;;4.87;2.90;;;22.10;80.50;;;;;;6123351;23;20478;-86
2022/08/22 03:13:57;;;;;;;6.20;3.00;;;22.00;80.90;;;;;;6124481;23;20509;-86
2022/08/22 03:16:34;;;;;;;5.23;3.00;;;22.00;81.30;;;;;;6099356;23;20469;-85
2022/08/22 03:19:04;;;;;;;3.40;2.80;;;22.00;81.50;;;;;;6116316;23;20482;-86
2022/08/22 03:21:42;;;;;;;5.73;3.60;;;22.00;81.80;;;;;;6116730;23;20439;-86
2022/08/22 03:24:17;;;;;;;5.47;3.43;;;22.00;82.10;;;;;;6117033;23;20406;-85
2022/08/22 03:27:12;;;;;;;4.87;3.40;;;22.10;82.10;;;;;;6119047;23;20456;-85
2022/08/22 03:30:06;;;;;;;4.40;3.37;;;22.00;82.40;;;;;;6123938;23;20801;-90
2022/08/22 03:33:18;;;;;;;7.70;3.20;;;22.00;82.80;;;;;;6128132;23;20408;-90
2022/08/22 03:35:48;;;;;;;4.60;3.63;;;21.90;83.30;;;;;;6117426;23;20443;-86
2022/08/22 03:38:21;;;;;;;3.87;3.20;;;21.90;84.50;;;;;;6105951;23;20775;-84
2022/08/22 03:41:16;;;;;;;3.90;3.50;;;21.90;84.80;;;;;;6107991;23;20785;-87
2022/08/22 03:44:10;;;;;;;5.60;3.30;;;21.80;85.00;;;;;;6135051;23;20428;-85
2022/08/22 03:46:46;;;;;;;4.20;3.50;;;21.80;85.50;;;;;;6109233;23;20436;-86
2022/08/22 03:49:25;;;;;;;5.17;3.70;;;21.80;85.20;;;;;;6137781;23;20392;-87
2022/08/22 03:52:29;;;;;;;4.70;3.53;;;21.70;86.00;;;;;;6112209;23;20430;-86
2022/08/22 03:55:34;;;;;;;3.50;3.20;;;21.50;87.00;;;;;;6111040;23;20435;-88
2022/08/22 03:58:51;;;;;;;4.10;3.27;;;21.50;87.70;;;;;;6061842;23;20684;-85
2022/08/22 04:01:52;;;;;;;4.00;3.40;;;21.40;88.60;;;;;;6103142;23;20450;-87
2022/08/22 04:04:52;;;;;;;3.70;3.40;;;21.60;88.20;;;;;;6140157;23;20495;-86
2022/08/22 04:07:37;;;;;;;4.13;3.73;;;21.50;88.60;;;;;;6141099;23;20392;-85
2022/08/22 04:10:25;;;;;;;6.13;3.80;;;21.40;89.50;;;;;;6140512;23;20403;-85
2022/08/22 04:13:04;;;;;;;4.13;3.73;;;21.50;89.40;;;;;;6148754;23;20428;-85
2022/08/22 04:15:38;;;;;;;5.90;3.87;;;21.40;89.10;;;;;;6118643;23;20458;-85
2022/08/22 04:18:35;;;;;;;4.80;3.50;;;21.20;89.30;;;;;;6136968;23;20411;-83
2022/08/22 04:21:34;;;;;;;4.00;3.60;;;21.00;90.10;;;;;;6109384;23;20443;-84
2022/08/22 04:24:10;;;;;;;5.40;3.80;;;21.10;90.30;;;;;;6111711;23;20876;-87
2022/08/22 04:26:59;;;;;;;6.23;5.73;;;20.90;90.60;;;;;;6108364;23;20511;-83
2022/08/22 04:29:31;;;;;;;4.50;3.37;;;20.70;91.00;;;;;;6134763;23;20435;-84
2022/08/22 04:32:03;;;;;;;5.07;4.13;;;20.80;91.30;;;;;;6111254;23;20479;-85
2022/08/22 04:34:40;;;;;;;4.30;3.90;;;20.80;91.20;;;;;;6108811;23;20514;-84
2022/08/22 04:37:15;;;;;;;4.40;3.47;;;20.70;91.50;;;;;;6107508;23;20435;-85
2022/08/22 04:39:58;;;;;;;7.67;4.30;;;20.60;91.70;;;;;;6133162;23;20475;-84
2022/08/22 04:42:37;;;;;;;6.10;3.90;;;20.60;91.80;;;;;;6105621;23;20439;-83
2022/08/22 04:45:39;;;;;;;8.53;4.07;;;20.60;92.10;;;;;;6110746;23;20439;-88
2022/08/22 04:48:30;;;;;;;5.43;4.33;;;20.60;92.10;;;;;;6145455;23;20402;-86
2022/08/22 04:51:23;;;;;;;3.90;3.60;;;20.60;92.20;;;;;;6146671;23;20403;-84
2022/08/22 04:54:24;;;;;;;4.43;4.03;;;20.60;92.20;;;;;;6116059;23;20391;-83
2022/08/22 04:57:18;;;;;;;5.43;3.97;;;20.70;92.20;;;;;;6114202;23;20493;-84
2022/08/22 04:59:45;;;;;;;4.60;4.20;;;20.50;92.10;;;;;;6140606;23;20395;-83
2022/08/22 05:02:21;;;;;;;7.73;5.00;;;20.40;92.50;;;;;;6141717;23;20451;-85
2022/08/22 05:05:12;;;;;;;5.57;4.00;;;20.40;92.40;;;;;;6141097;23;20394;-86
2022/08/22 05:07:50;;;;;;;5.13;4.63;;;20.30;92.70;;;;;;6115094;23;20420;-86
2022/08/22 05:10:25;;;;;;;4.30;3.90;;;20.60;92.50;;;;;;6115068;23;20444;-84
2022/08/22 05:13:00;;;;;;;4.37;4.00;;;20.60;92.30;;;;;;6139183;23;20435;-87
2022/08/22 05:15:39;;;;;;;4.67;4.30;;;20.60;92.10;;;;;;6117714;23;20426;-86
2022/08/22 05:18:38;;;;;;;4.57;4.10;;;20.50;92.00;;;;;;6119614;23;20468;-83
2022/08/22 05:21:08;;;;;;;6.20;3.60;;;20.40;92.50;;;;;;6143466;23;20418;-85
2022/08/22 05:23:50;;;;;;;5.53;4.87;;;20.50;92.30;;;;;;6144303;23;20396;-85
2022/08/22 05:26:19;;;;;;;4.70;3.87;;;20.40;92.40;;;;;;6148494;23;20440;-84
2022/08/22 05:28:53;;;;;;;6.93;4.43;;;20.70;92.70;;;;;;6138013;23;20415;-86
2022/08/22 05:31:28;;;;;;;4.50;4.10;;;20.80;92.30;;;;;;6136276;23;20394;-83
2022/08/22 05:34:25;;;;;;;6.03;4.50;;;20.80;92.40;;;;;;6114785;23;20451;-86
2022/08/22 05:37:02;;;;;;;6.73;4.27;;;20.80;92.20;;;;;;6139053;23;20455;-86
2022/08/22 05:39:45;;;;;;;6.90;4.40;;;20.70;92.30;;;;;;6146755;23;20403;-86
2022/08/22 05:42:51;;;;;;;5.27;4.40;;;20.70;93.00;;;;;;6141635;23;20467;-86
2022/08/22 05:45:28;;;;;;;6.47;4.97;;;20.60;92.90;;;;;;6127797;23;20511;-86
2022/08/22 05:48:10;;;;;;;6.10;4.23;;;20.60;93.40;;;;;;6146348;23;20419;-87
2022/08/22 05:51:20;;;;;;;8.70;4.50;;;20.40;93.70;;;;;;6120948;23;20435;-88
2022/08/22 05:54:33;;;;;;;;;;;;;;;;;;;;;
2022/08/22 05:57:31;;;;;;;5.43;4.33;;;20.60;93.00;;;;;;6134467;23;20412;-86
2022/08/22 06:00:10;;;;;;;9.40;5.13;;;20.90;92.40;;;;;;6111513;23;20423;-88
2022/08/22 06:03:01;;;;;;;13.10;6.07;;;20.90;92.30;;;;;;6116342;23;20451;-86
2022/08/22 06:05:44;;;;;;;10.87;6.13;;;21.00;92.20;;;;;;6111632;23;20804;-85
2022/08/22 06:08:33;;;;;;;7.50;4.17;;;21.10;91.70;;;;;;6110380;23;20415;-85
2022/08/22 06:11:15;;;;;;;7.50;4.60;;;22.90;90.30;;;;;;6110561;23;20411;-86
2022/08/22 06:13:51;;;;;;;8.43;4.00;;;26.00;80.30;;;;;;6113608;23;20402;-84
2022/08/22 06:16:59;;;;;;;5.97;3.83;;;28.00;67.70;;;;;;6139062;23;20530;-85
2022/08/22 06:19:27;;;;;;;6.77;3.40;;;29.80;60.80;;;;;;6102774;23;20475;-85
2022/08/22 06:21:57;;;;;;;8.40;4.33;;;30.90;56.30;;;;;;6115110;23;20475;-85
2022/08/22 06:24:32;;;;;;;4.13;3.27;;;31.50;53.50;;;;;;6113633;23;20388;-83
2022/08/22 06:27:16;;;;;;;4.30;3.43;;;31.60;52.10;;;;;;6112461;23;20415;-82
2022/08/22 06:29:57;;;;;;;3.30;3.00;;;31.70;52.00;;;;;;6138174;23;20396;-84
2022/08/22 06:32:43;;;;;;;2.97;2.67;;;32.30;51.30;;;;;;6114445;23;20419;-82
2022/08/22 06:38:32;;;;;;;4.83;3.30;;;29.10;54.10;;;;;;6142395;23;20407;-86
2022/08/22 06:41:07;;;;;;;3.37;2.93;;;27.40;57.00;;;;;;6126445;23;20443;-88
2022/08/22 06:43:41;;;;;;;6.83;3.50;;;27.20;58.80;;;;;;6119144;23;20902;-84
2022/08/22 06:46:11;;;;;;;4.40;2.90;;;28.30;57.40;;;;;;6109106;23;20443;-85
2022/08/22 06:48:40;;;;;;;3.30;3.00;;;29.50;55.50;;;;;;6134978;23;20410;-83
2022/08/22 06:51:11;;;;;;;3.43;3.13;;;29.80;53.30;;;;;;6105931;23;20408;-83
2022/08/22 06:53:45;;;;;;;5.13;3.07;;;28.70;54.20;;;;;;6131818;23;20419;-84
2022/08/22 06:56:50;;;;;;;6.80;4.30;;;27.20;56.80;;;;;;6131910;23;20466;-84
2022/08/22 06:59:34;;;;;;;6.27;3.40;;;25.80;60.40;;;;;;6110296;23;20446;-84
2022/08/22 07:02:09;;;;;;;5.53;3.57;;;25.70;63.30;;;;;;6137571;23;20447;-85
2022/08/22 07:04:40;;;;;;;3.60;3.30;;;27.80;59.60;;;;;;6142087;23;20422;-88
2022/08/22 07:07:15;;;;;;;6.23;3.27;;;29.10;56.20;;;;;;6138135;23;20403;-83
2022/08/22 07:09:50;;;;;;;7.60;3.37;;;30.00;54.50;;;;;;6109163;23;20416;-84
2022/08/22 07:12:27;;;;;;;4.43;3.20;;;30.20;53.00;;;;;;6105835;23;20413;-87
2022/08/22 07:15:39;;;;;;;8.60;3.20;;;30.00;52.90;;;;;;6109519;23;20549;-84
2022/08/22 07:18:20;;;;;;;12.33;4.30;;;30.70;51.90;;;;;;6113701;23;20427;-87
2022/08/22 07:20:51;;;;;;;3.93;3.30;;;31.80;50.70;;;;;;6114680;23;20396;-85
2022/08/22 07:23:35;;;;;;;4.77;3.20;;;32.90;48.00;;;;;;6140352;23;20412;-85
2022/08/22 07:26:40;;;;;;;5.47;3.30;;;32.90;47.30;;;;;;6138347;23;20464;-84
2022/08/22 07:29:29;;;;;;;5.20;3.53;;;33.30;46.10;;;;;;6109617;23;20396;-84
2022/08/22 07:32:19;;;;;;;5.40;3.93;;;33.80;45.20;;;;;;6136075;23;20488;-86
2022/08/22 07:35:11;;;;;;;6.00;4.00;;;35.30;42.60;;;;;;6108286;23;20439;-85
2022/08/22 07:37:57;;;;;;;5.90;3.53;;;35.40;42.20;;;;;;6111607;23;20429;-89
2022/08/22 07:40:54;;;;;;;4.03;3.63;;;35.90;40.70;;;;;;6113922;23;20428;-85
2022/08/22 07:43:50;;;;;;;4.90;3.30;;;35.50;40.70;;;;;;6139888;23;20454;-87
2022/08/22 07:46:30;;;;;;;4.20;3.00;;;35.20;40.40;;;;;;6113929;23;20522;-88
2022/08/22 07:49:08;;;;;;;4.90;2.63;;;34.40;41.40;;;;;;6114111;23;20468;-86
2022/08/22 07:51:53;;;;;;;5.77;3.13;;;33.50;42.50;;;;;;6114690;23;20396;-86
2022/08/22 07:54:34;;;;;;;3.73;2.80;;;34.90;41.30;;;;;;6142398;23;20402;-83
2022/08/22 07:57:24;;;;;;;5.00;2.90;;;36.00;39.60;;;;;;6142957;23;20422;-86
2022/08/22 07:59:54;;;;;;;4.60;2.93;;;36.40;38.50;;;;;;6120933;23;20422;-86
2022/08/22 08:02:23;;;;;;;3.30;2.70;;;36.20;38.40;;;;;;6143299;23;20496;-87
2022/08/22 08:04:53;;;;;;;5.63;2.97;;;35.60;38.50;;;;;;6116198;23;20511;-84
2022/08/22 08:07:25;;;;;;;3.90;2.90;;;35.30;39.40;;;;;;6115272;23;20681;-88
2022/08/22 08:10:03;;;;;;;4.00;2.37;;;35.30;38.60;;;;;;6140751;23;20423;-88
2022/08/22 08:12:40;;;;;;;3.87;2.60;;;34.90;39.10;;;;;;6120933;23;20408;-85
2022/08/22 08:15:24;;;;;;;4.03;3.23;;;35.90;38.30;;;;;;6118491;23;20428;-87
2022/08/22 08:18:01;;;;;;;5.20;3.00;;;35.90;37.90;;;;;;6094897;23;20412;-87
2022/08/22 08:20:33;;;;;;;4.83;3.30;;;35.90;38.00;;;;;;6124070;23;20407;-92
2022/08/22 08:28:35;;;;;;;3.20;2.83;;;37.80;35.50;;;;;;6122324;23;20407;-90
2022/08/22 08:31:34;;;;;;;4.70;2.77;;;37.30;35.10;;;;;;6122362;23;20411;-90
2022/08/22 08:34:05;;;;;;;3.37;2.60;;;37.90;34.60;;;;;;6091059;23;20471;-84
2022/08/22 08:37:14;;;;;;;3.53;2.43;;;38.50;33.40;;;;;;6110938;23;20424;-86
2022/08/22 08:39:55;;;;;;;3.03;2.10;;;38.10;33.20;;;;;;6085575;23;20946;-85
2022/08/22 08:46:16;;;;;;;3.40;2.30;;;37.40;33.70;;;;;;6109354;23;20455;-85
2022/08/22 08:49:14;;;;;;;5.00;2.03;;;37.60;34.10;;;;;;6083395;23;20463;-87
2022/08/22 08:52:15;;;;;;;3.20;2.00;;;39.00;32.10;;;;;;6084720;23;20515;-89
2022/08/22 08:55:12;;;;;;;3.50;2.03;;;39.10;30.90;;;;;;6106452;23;20427;-85
2022/08/22 08:58:07;;;;;;;2.70;1.33;;;39.10;30.90;;;;;;6097683;23;20408;-87
2022/08/22 09:00:43;;;;;;;3.30;2.70;;;38.10;32.00;;;;;;6075993;23;20471;-87
2022/08/22 09:03:53;;;;;;;4.23;1.80;;;37.20;31.70;;;;;;6102205;23;20560;-87
2022/08/22 09:06:44;;;;;;;3.70;2.20;;;35.70;33.70;;;;;;6102829;23;20436;-89
2022/08/22 09:09:50;;;;;;;2.27;1.87;;;36.00;34.20;;;;;;6075755;23;20408;-88
2022/08/22 09:12:31;;;;;;;2.53;1.70;;;35.80;33.80;;;;;;6074341;23;20440;-89
2022/08/22 09:15:31;;;;;;;2.40;1.87;;;36.40;33.40;;;;;;6076299;23;20431;-87
2022/08/22 09:18:33;;;;;;;4.63;2.23;;;36.80;32.70;;;;;;6075885;23;20419;-87
2022/08/22 09:21:24;;;;;;;2.70;2.20;;;36.20;33.60;;;;;;6100008;23;20392;-91
2022/08/22 09:24:33;;;;;;;3.13;2.30;;;37.70;31.90;;;;;;6073770;23;20424;-89
2022/08/22 09:27:29;;;;;;;3.27;2.17;;;37.30;32.00;;;;;;6076738;23;20420;-86
2022/08/22 09:30:09;;;;;;;4.60;1.93;;;36.40;31.90;;;;;;6024817;23;21186;-88
2022/08/22 09:32:48;;;;;;;1.97;1.63;;;35.80;33.00;;;;;;6077533;23;20443;-86
2022/08/22 09:38:56;;;;;;;2.37;2.10;;;36.30;32.20;;;;;;6074616;23;20426;-87
2022/08/22 09:41:42;;;;;;;1.93;1.70;;;35.50;33.10;;;;;;6076909;23;20404;-85
2022/08/22 09:44:39;;;;;;;3.00;2.20;;;34.50;34.10;;;;;;6078327;23;20420;-88
2022/08/22 09:47:21;;;;;;;3.10;2.03;;;33.90;34.80;;;;;;6075014;23;20468;-86
2022/08/22 09:50:14;;;;;;;1.73;1.63;;;34.20;34.90;;;;;;6074308;23;20435;-88
2022/08/22 09:53:07;;;;;;;2.50;2.30;;;34.00;35.30;;;;;;6075382;23;20445;-84
2022/08/22 09:56:07;;;;;;;3.73;2.00;;;34.50;34.60;;;;;;6098459;23;20450;-85
2022/08/22 09:58:56;;;;;;;2.60;1.80;;;33.80;34.60;;;;;;6074494;23;20492;-88
2022/08/22 10:01:50;;;;;;;2.30;1.83;;;32.70;36.70;;;;;;6073471;23;20425;-88
2022/08/22 10:04:30;;;;;;;2.00;1.63;;;31.10;38.90;;;;;;6075141;23;20483;-86
2022/08/22 10:07:06;;;;;;;2.00;1.80;;;30.10;40.90;;;;;;6075127;23;21230;-85
2022/08/22 10:10:06;;;;;;;;;;;;;;;;;;;;;
2022/08/22 10:13:05;;;;;;;4.13;1.87;;;29.30;42.70;;;;;;6099589;23;20530;-84
2022/08/22 10:16:00;;;;;;;3.50;2.23;;;29.30;42.70;;;;;;6077758;23;20508;-88
2022/08/22 10:18:59;;;;;;;2.90;1.93;;;30.00;42.20;;;;;;6102369;23;20412;-88
2022/08/22 10:21:40;;;;;;;1.60;1.30;;;31.50;40.10;;;;;;6076850;23;20729;-87
2022/08/22 10:24:32;;;;;;;2.87;1.77;;;32.90;38.00;;;;;;6077213;23;20487;-87
2022/08/22 10:27:18;;;;;;;2.67;1.80;;;33.80;36.30;;;;;;6078802;23;20425;-87
2022/08/22 10:30:03;;;;;;;1.80;1.70;;;33.40;36.00;;;;;;6077498;23;20412;-84
2022/08/22 10:32:59;;;;;;;2.33;1.57;;;33.80;35.80;;;;;;6079764;23;21018;-86
2022/08/22 10:35:59;;;;;;;2.60;2.20;;;33.80;35.80;;;;;;6077822;23;20428;-88
2022/08/22 10:38:41;;;;;;;2.23;1.70;;;34.20;35.40;;;;;;6105268;23;20452;-88
2022/08/22 10:41:28;;;;;;;3.07;1.60;;;34.90;34.50;;;;;;6104677;23;20397;-88
2022/08/22 10:44:19;;;;;;;2.57;1.60;;;34.90;34.20;;;;;;6079653;23;20431;-86
2022/08/22 10:47:12;;;;;;;2.57;1.83;;;34.80;34.20;;;;;;6078071;23;20443;-88
2022/08/22 10:49:50;;;;;;;3.10;1.57;;;35.10;33.60;;;;;;6079010;23;20404;-87
2022/08/22 10:52:26;;;;;;;2.53;1.87;;;34.20;34.70;;;;;;6105260;23;20452;-87
2022/08/22 10:54:56;;;;;;;2.70;1.77;;;33.50;35.30;;;;;;6079395;23;20416;-88
2022/08/22 10:57:38;;;;;;;4.40;1.97;;;32.20;37.20;;;;;;6104182;23;20405;-88
2022/08/22 11:00:07;;;;;;;2.10;1.90;;;32.20;37.90;;;;;;6077285;23;20940;-85
2022/08/22 11:02:34;;;;;;;3.73;2.13;;;31.70;38.20;;;;;;6080706;23;20417;-87
2022/08/22 11:05:21;;;;;;;4.50;2.20;;;31.20;38.80;;;;;;6081015;23;20432;-84
2022/08/22 11:08:26;;;;;;;3.83;2.10;;;31.00;39.20;;;;;;6107483;23;20427;-84
2022/08/22 11:11:47;;;;;;;2.13;1.87;;;30.90;38.80;;;;;;6108553;23;20420;-86
2022/08/22 11:14:16;;;;;;;2.17;2.00;;;31.10;38.90;;;;;;5948708;23;20440;-90
2022/08/22 11:16:57;;;;;;;3.73;2.40;;;31.70;38.40;;;;;;6058620;23;20679;-84
2022/08/22 11:20:15;;;;;;;2.00;1.90;;;31.60;38.80;;;;;;6079934;23;20984;-85
2022/08/22 11:23:12;;;;;;;4.67;2.47;;;31.80;37.20;;;;;;6083067;23;20796;-84
2022/08/22 11:25:51;;;;;;;3.40;2.43;;;31.40;38.20;;;;;;6087687;23;20432;-86
2022/08/22 11:28:41;;;;;;;2.47;1.70;;;31.60;37.50;;;;;;6116329;23;20515;-84
2022/08/22 11:31:49;;;;;;;2.13;2.03;;;31.50;37.30;;;;;;6093042;23;20388;-90
2022/08/22 11:34:59;;;;;;;2.90;2.00;;;31.40;37.30;;;;;;6118339;23;20408;-86
2022/08/22 11:37:50;;;;;;;3.70;2.20;;;31.60;37.30;;;;;;6117377;23;20424;-90
2022/08/22 11:40:34;;;;;;;2.47;2.27;;;32.10;37.50;;;;;;6117865;23;20417;-90
2022/08/22 11:43:33;;;;;;;1.83;1.73;;;31.90;37.40;;;;;;6117722;23;20435;-85
2022/08/22 11:46:15;;;;;;;2.27;2.00;;;31.60;37.30;;;;;;6093330;23;20540;-89
2022/08/22 11:49:09;;;;;;;3.60;2.10;;;31.10;38.00;;;;;;6090216;23;20460;-86
2022/08/22 11:52:03;;;;;;;3.63;2.07;;;30.80;38.50;;;;;;6086045;23;20445;-86
2022/08/22 11:54:56;;;;;;;2.50;2.30;;;30.50;39.60;;;;;;6106774;23;20397;-85
2022/08/22 11:57:40;;;;;;;2.70;2.40;;;30.50;39.40;;;;;;6079574;23;20440;-84
2022/08/22 12:00:34;;;;;;;5.67;2.90;;;30.80;38.80;;;;;;6082300;23;20770;-87
2022/08/22 12:03:35;;;;;;;4.27;2.20;;;30.80;38.80;;;;;;6084185;23;20405;-88
2022/08/22 12:06:13;;;;;;;2.87;1.90;;;30.50;38.70;;;;;;5975915;23;20428;-89
2022/08/22 12:08:48;;;;;;;2.47;2.20;;;30.60;38.50;;;;;;6084015;23;20406;-88
2022/08/22 12:11:31;;;;;;;3.47;2.03;;;31.00;38.30;;;;;;6115927;23;20393;-86
2022/08/22 12:14:14;;;;;;;2.80;2.30;;;31.50;37.20;;;;;;6093676;23;20440;-90
2022/08/22 12:17:35;;;;;;;3.53;2.60;;;31.90;36.60;;;;;;6092443;23;20480;-89
2022/08/22 12:20:32;;;;;;;5.07;1.87;;;31.70;36.40;;;;;;6091488;23;20416;-90
2022/08/22 12:23:26;;;;;;;2.10;1.90;;;31.70;36.20;;;;;;6069933;23;20405;-87
2022/08/22 12:26:32;;;;;;;2.53;2.33;;;31.70;36.50;;;;;;6068824;23;20432;-89
2022/08/22 12:29:08;;;;;;;2.60;2.40;;;31.50;36.40;;;;;;6095292;23;20394;-84
2022/08/22 12:32:17;;;;;;;3.10;2.40;;;31.10;37.20;;;;;;6079868;23;20409;-89
2022/08/22 12:35:03;;;;;;;2.70;2.27;;;31.30;37.20;;;;;;6077846;23;20604;-88
2022/08/22 12:38:04;;;;;;;3.10;2.27;;;31.10;37.50;;;;;;6079061;23;20488;-88
2022/08/22 12:41:16;;;;;;;4.03;2.60;;;30.90;38.20;;;;;;6082623;23;20861;-86
2022/08/22 12:44:19;;;;;;;3.00;2.40;;;31.00;37.80;;;;;;6060087;23;20405;-85
2022/08/22 12:47:26;;;;;;;3.47;2.50;;;30.50;38.30;;;;;;6100749;23;20551;-86
2022/08/22 12:50:05;;;;;;;3.67;2.77;;;30.50;38.50;;;;;;6075822;23;20476;-88
2022/08/22 12:53:05;;;;;;;2.50;2.07;;;30.80;39.10;;;;;;6077746;23;20455;-87
2022/08/22 12:55:36;;;;;;;2.93;2.20;;;31.00;38.40;;;;;;6079814;23;20495;-88
2022/08/22 12:58:31;;;;;;;2.17;1.93;;;30.90;38.40;;;;;;6103255;23;20433;-88
2022/08/22 13:01:07;;;;;;;6.10;2.30;;;30.80;38.40;;;;;;6078658;23;20405;-88
2022/08/22 13:03:58;;;;;;;5.67;2.60;;;30.70;38.30;;;;;;6077196;23;20484;-88
2022/08/22 13:06:39;;;;;;;2.50;2.30;;;30.40;38.70;;;;;;6075774;23;20507;-88
2022/08/22 13:09:08;;;;;;;2.57;2.00;;;30.70;38.80;;;;;;6078330;23;21251;-89
2022/08/22 13:11:47;;;;;;;3.30;2.63;;;30.40;39.00;;;;;;6102632;23;20417;-86
2022/08/22 13:14:23;;;;;;;5.30;2.30;;;30.30;39.30;;;;;;6059826;23;20444;-89
2022/08/22 13:17:12;;;;;;;3.23;2.53;;;30.20;39.20;;;;;;6084493;23;20424;-89
2022/08/22 13:19:56;;;;;;;2.97;2.77;;;30.10;39.10;;;;;;6110452;23;20440;-86
2022/08/22 13:22:39;;;;;;;2.80;2.07;;;30.10;39.30;;;;;;6086792;23;21043;-86
2022/08/22 13:25:25;;;;;;;4.07;2.53;;;30.10;39.20;;;;;;6076975;23;20440;-87
2022/08/22 13:28:11;;;;;;;7.53;2.50;;;30.10;39.20;;;;;;6068751;23;20456;-87
2022/08/22 13:30:41;;;;;;;7.73;3.10;;;30.80;38.40;;;;;;6068892;23;20414;-86
2022/08/22 13:33:48;;;;;;;;;;;;;;;;;;;;;
2022/08/22 13:36:32;;;;;;;2.97;2.30;;;30.90;37.90;;;;;;6042124;23;20497;-87
2022/08/22 13:39:36;;;;;;;3.57;2.43;;;31.00;37.90;;;;;;6068294;23;20890;-89
2022/08/22 13:42:06;;;;;;;2.80;2.27;;;30.90;38.40;;;;;;6069026;23;20838;-86
2022/08/22 13:44:55;;;;;;;5.37;2.70;;;30.70;38.20;;;;;;6066978;23;20413;-88
2022/08/22 13:47:27;;;;;;;3.90;2.47;;;30.80;38.30;;;;;;6065703;23;20409;-87
2022/08/22 13:50:25;;;;;;;3.30;2.30;;;30.80;38.40;;;;;;6066068;23;20380;-88
2022/08/22 13:53:02;;;;;;;5.63;2.93;;;30.90;38.20;;;;;;6066152;23;20481;-87
2022/08/22 13:59:04;;;;;;;3.70;1.77;;;31.20;36.50;;;;;;6064489;23;20445;-86
2022/08/22 14:02:43;;;;;;;2.97;2.13;;;31.30;36.30;;;;;;6067147;23;20489;-90
2022/08/22 14:05:40;;;;;;;4.47;2.40;;;31.20;36.00;;;;;;5946314;24;20449;-90
2022/08/22 14:08:42;;;;;;;2.47;2.27;;;30.90;36.30;;;;;;6065998;23;20397;-86
2022/08/22 14:11:44;;;;;;;3.10;2.30;;;30.70;36.70;;;;;;6066814;23;20480;-85
2022/08/22 14:14:35;;;;;;;3.23;2.40;;;30.70;36.90;;;;;;6006756;23;20487;-88
2022/08/22 14:17:21;;;;;;;2.50;2.10;;;30.60;36.90;;;;;;5982693;23;20486;-86
2022/08/22 14:20:10;;;;;;;2.53;2.33;;;31.10;36.50;;;;;;5980542;23;20498;-87
2022/08/22 14:23:14;;;;;;;4.40;2.20;;;31.00;36.80;;;;;;5983745;23;20447;-87
2022/08/22 14:25:48;;;;;;;2.63;2.43;;;30.90;37.00;;;;;;5991715;23;21037;-87
2022/08/22 14:28:35;;;;;;;3.20;2.33;;;30.80;37.20;;;;;;5979370;23;20415;-85
2022/08/22 14:31:23;;;;;;;2.40;1.87;;;30.90;37.50;;;;;;6014510;23;20434;-88
2022/08/22 14:34:09;;;;;;;2.30;2.10;;;30.90;37.00;;;;;;6002294;23;20455;-89
2022/08/22 14:37:22;;;;;;;2.80;2.20;;;30.90;36.80;;;;;;6000342;23;20414;-87
2022/08/22 14:40:13;;;;;;;4.80;2.50;;;30.90;36.90;;;;;;5994706;23;20429;-86
2022/08/22 14:42:51;;;;;;;2.73;2.33;;;31.30;36.20;;;;;;5992660;23;20574;-86
2022/08/22 14:45:44;;;;;;;5.90;2.40;;;31.40;35.80;;;;;;5993575;23;20431;-86
2022/08/22 14:48:33;;;;;;;2.50;2.30;;;31.20;36.30;;;;;;5990200;23;20750;-87
2022/08/22 14:51:17;;;;;;;3.60;2.03;;;31.00;36.60;;;;;;6008426;23;20457;-87
2022/08/22 14:54:09;;;;;;;4.10;3.00;;;31.00;37.40;;;;;;6071342;23;20448;-87
2022/08/22 14:56:48;;;;;;;3.17;2.03;;;31.00;36.60;;;;;;6071793;23;20501;-88